sensor_id;sensor_type;location;lat;lon;timestamp;temperature;humidity
2539;DHT22;1280;49.760;9.664;2023-11-21T13:51:16;12.20;80.70
2539;DHT22;1280;49.760;9.664;2023-11-21T13:53:45;12.20;80.60
2539;DHT22;1280;49.760;9.664;2023-11-21T13:56:15;12.20;80.60
2539;DHT22;1280;49.760;9.664;2023-11-21T13:58:47;12.20;80.50
2539;DHT22;1280;49.760;9.664;2023-11-21T14:01:18;12.20;80.50
2539;DHT22;1280;49.760;9.664;2023-11-21T14:04:21;12.20;80.40
2539;DHT22;1280;49.760;9.664;2023-11-21T14:07:04;12.20;80.40
2539;DHT22;1280;49.760;9.664;2023-11-21T14:09:47;12.20;80.20
2539;DHT22;1280;49.760;9.664;2023-11-21T14:12:18;12.20;80.10
2539;DHT22;1280;49.760;9.664;2023-11-21T14:14:46;12.10;79.80
2539;DHT22;1280;49.760;9.664;2023-11-21T14:17:15;12.10;79.80
2539;DHT22;1280;49.760;9.664;2023-11-21T14:19:44;12.10;79.70
2539;DHT22;1280;49.760;9.664;2023-11-21T14:22:14;12.00;79.20
2539;DHT22;1280;49.760;9.664;2023-11-21T14:24:45;12.00;78.90
2539;DHT22;1280;49.760;9.664;2023-11-21T14:27:15;11.70;78.20
2539;DHT22;1280;49.760;9.664;2023-11-21T14:29:43;11.80;78.50
2539;DHT22;1280;49.760;9.664;2023-11-21T14:32:12;11.80;78.60
2539;DHT22;1280;49.760;9.664;2023-11-21T14:34:41;11.70;78.40
2539;DHT22;1280;49.760;9.664;2023-11-21T14:37:13;11.80;78.40
2539;DHT22;1280;49.760;9.664;2023-11-21T14:39:41;11.70;78.20
2539;DHT22;1280;49.760;9.664;2023-11-21T14:42:13;11.60;78.20
2539;DHT22;1280;49.760;9.664;2023-11-21T14:44:42;11.70;78.30
2539;DHT22;1280;49.760;9.664;2023-11-21T14:47:10;11.70;78.30
2539;DHT22;1280;49.760;9.664;2023-11-21T14:49:43;11.70;78.20
2539;DHT22;1280;49.760;9.664;2023-11-21T14:52:21;11.70;78.20
2539;DHT22;1280;49.760;9.664;2023-11-21T14:55:03;11.60;78.10
2539;DHT22;1280;49.760;9.664;2023-11-21T14:57:58;11.60;78.20
2539;DHT22;1280;49.760;9.664;2023-11-21T15:00:29;11.60;78.20
2539;DHT22;1280;49.760;9.664;2023-11-21T15:10:40;11.50;78.00
2539;DHT22;1280;49.760;9.664;2023-11-21T15:13:15;11.50;78.10
2539;DHT22;1280;49.760;9.664;2023-11-21T15:15:43;11.50;77.90
2539;DHT22;1280;49.760;9.664;2023-11-21T15:18:11;11.40;78.00
2539;DHT22;1280;49.760;9.664;2023-11-21T15:20:41;11.50;78.00
2539;DHT22;1280;49.760;9.664;2023-11-21T15:23:10;11.40;78.00
2539;DHT22;1280;49.760;9.664;2023-11-21T15:25:41;11.40;77.90
2539;DHT22;1280;49.760;9.664;2023-11-21T15:28:09;11.40;77.90
2539;DHT22;1280;49.760;9.664;2023-11-21T15:30:39;11.30;77.90
2539;DHT22;1280;49.760;9.664;2023-11-21T15:36:27;11.30;77.90
2539;DHT22;1280;49.760;9.664;2023-11-21T15:38:55;11.30;77.90
2539;DHT22;1280;49.760;9.664;2023-11-21T15:41:24;11.20;77.90
2539;DHT22;1280;49.760;9.664;2023-11-21T15:43:54;11.20;78.00
2539;DHT22;1280;49.760;9.664;2023-11-21T15:46:28;11.20;78.00
2539;DHT22;1280;49.760;9.664;2023-11-21T15:48:56;11.20;77.90
2539;DHT22;1280;49.760;9.664;2023-11-21T15:51:24;11.20;78.00
2539;DHT22;1280;49.760;9.664;2023-11-21T15:53:53;11.20;78.00
2539;DHT22;1280;49.760;9.664;2023-11-21T15:56:21;11.20;78.00
2539;DHT22;1280;49.760;9.664;2023-11-21T15:58:51;11.20;78.00
2539;DHT22;1280;49.760;9.664;2023-11-21T16:01:19;11.20;78.00
2539;DHT22;1280;49.760;9.664;2023-11-21T16:03:48;11.30;78.00
2539;DHT22;1280;49.760;9.664;2023-11-21T16:06:18;11.30;78.00
2539;DHT22;1280;49.760;9.664;2023-11-21T16:08:47;11.40;78.00
2539;DHT22;1280;49.760;9.664;2023-11-21T16:11:15;11.40;77.90
2539;DHT22;1280;49.760;9.664;2023-11-21T16:13:43;11.40;77.90
2539;DHT22;1280;49.760;9.664;2023-11-21T16:16:14;11.40;77.80
2539;DHT22;1280;49.760;9.664;2023-11-21T16:18:44;11.40;77.80
2539;DHT22;1280;49.760;9.664;2023-11-21T16:21:12;11.40;77.70
2539;DHT22;1280;49.760;9.664;2023-11-21T16:23:42;11.40;77.80
2539;DHT22;1280;49.760;9.664;2023-11-21T16:26:11;11.40;77.70
2539;DHT22;1280;49.760;9.664;2023-11-21T16:28:39;11.40;77.60
2539;DHT22;1280;49.760;9.664;2023-11-21T16:31:08;11.40;77.60
2539;DHT22;1280;49.760;9.664;2023-11-21T16:33:38;11.40;77.60
2539;DHT22;1280;49.760;9.664;2023-11-21T16:36:08;11.40;77.60
2539;DHT22;1280;49.760;9.664;2023-11-21T16:38:36;11.40;77.60
2539;DHT22;1280;49.760;9.664;2023-11-21T16:41:04;11.40;77.50
2539;DHT22;1280;49.760;9.664;2023-11-21T16:43:34;11.40;77.60
2539;DHT22;1280;49.760;9.664;2023-11-21T16:46:03;11.40;77.60
2539;DHT22;1280;49.760;9.664;2023-11-21T16:48:32;11.40;77.60
2539;DHT22;1280;49.760;9.664;2023-11-21T16:51:01;11.40;77.60
2539;DHT22;1280;49.760;9.664;2023-11-21T16:53:29;11.40;77.80
2539;DHT22;1280;49.760;9.664;2023-11-21T16:55:57;11.50;77.90
2539;DHT22;1280;49.760;9.664;2023-11-21T16:58:27;11.50;77.90
2539;DHT22;1280;49.760;9.664;2023-11-21T17:00:56;11.60;77.90
2539;DHT22;1280;49.760;9.664;2023-11-21T17:03:24;11.60;77.90
2539;DHT22;1280;49.760;9.664;2023-11-21T17:05:53;11.70;77.90
2539;DHT22;1280;49.760;9.664;2023-11-21T17:08:24;11.70;77.80
2539;DHT22;1280;49.760;9.664;2023-11-21T17:10:52;11.80;77.80
2539;DHT22;1280;49.760;9.664;2023-11-21T17:13:20;11.80;77.70
2539;DHT22;1280;49.760;9.664;2023-11-21T17:15:49;11.90;77.70
2539;DHT22;1280;49.760;9.664;2023-11-21T17:18:18;11.90;77.70
2539;DHT22;1280;49.760;9.664;2023-11-21T17:20:46;11.90;77.70
2539;DHT22;1280;49.760;9.664;2023-11-21T17:23:16;11.90;77.60
2539;DHT22;1280;49.760;9.664;2023-11-21T17:25:45;12.00;77.60
2539;DHT22;1280;49.760;9.664;2023-11-21T17:28:13;12.00;77.60
2539;DHT22;1280;49.760;9.664;2023-11-21T17:30:48;12.00;77.60
2539;DHT22;1280;49.760;9.664;2023-11-21T17:33:16;12.00;77.50
2539;DHT22;1280;49.760;9.664;2023-11-21T17:35:45;12.00;77.60
2539;DHT22;1280;49.760;9.664;2023-11-21T17:38:13;12.00;77.50
2539;DHT22;1280;49.760;9.664;2023-11-21T17:40:42;12.00;77.50
2539;DHT22;1280;49.760;9.664;2023-11-21T17:43:12;12.00;77.50
2539;DHT22;1280;49.760;9.664;2023-11-21T17:45:40;12.00;77.50
2539;DHT22;1280;49.760;9.664;2023-11-21T17:48:08;12.00;77.50
2539;DHT22;1280;49.760;9.664;2023-11-21T17:50:37;12.00;77.50
2539;DHT22;1280;49.760;9.664;2023-11-21T17:53:06;12.00;77.40
2539;DHT22;1280;49.760;9.664;2023-11-21T17:55:34;12.00;77.40
2539;DHT22;1280;49.760;9.664;2023-11-21T17:58:02;12.00;77.40
2539;DHT22;1280;49.760;9.664;2023-11-21T18:00:31;12.00;77.50
2539;DHT22;1280;49.760;9.664;2023-11-21T18:03:00;12.00;77.50
2539;DHT22;1280;49.760;9.664;2023-11-21T18:05:29;12.00;77.40
2539;DHT22;1280;49.760;9.664;2023-11-21T18:07:58;12.00;77.40
2539;DHT22;1280;49.760;9.664;2023-11-21T18:10:26;12.00;77.40
2539;DHT22;1280;49.760;9.664;2023-11-21T18:12:54;12.00;77.40
2539;DHT22;1280;49.760;9.664;2023-11-21T18:15:23;12.00;77.40
2539;DHT22;1280;49.760;9.664;2023-11-21T18:17:53;12.00;77.30
2539;DHT22;1280;49.760;9.664;2023-11-21T18:20:21;12.00;77.30
2539;DHT22;1280;49.760;9.664;2023-11-21T18:22:49;11.90;77.30
2539;DHT22;1280;49.760;9.664;2023-11-21T18:25:20;11.90;77.30
2539;DHT22;1280;49.760;9.664;2023-11-21T18:27:52;11.90;77.30
2539;DHT22;1280;49.760;9.664;2023-11-21T18:30:20;11.90;77.40
2539;DHT22;1280;49.760;9.664;2023-11-21T18:32:48;11.90;77.40
2539;DHT22;1280;49.760;9.664;2023-11-21T18:35:17;11.90;77.30
2539;DHT22;1280;49.760;9.664;2023-11-21T18:37:46;11.90;77.40
2539;DHT22;1280;49.760;9.664;2023-11-21T18:40:16;11.90;77.40
2539;DHT22;1280;49.760;9.664;2023-11-21T18:42:44;11.90;77.40
2539;DHT22;1280;49.760;9.664;2023-11-21T18:45:12;11.90;77.50
2539;DHT22;1280;49.760;9.664;2023-11-21T18:47:40;11.90;77.50
2539;DHT22;1280;49.760;9.664;2023-11-21T18:50:09;11.90;77.50
2539;DHT22;1280;49.760;9.664;2023-11-21T18:52:45;11.90;77.40
2539;DHT22;1280;49.760;9.664;2023-11-21T18:55:13;11.80;77.40
2539;DHT22;1280;49.760;9.664;2023-11-21T18:57:41;11.80;77.50
2539;DHT22;1280;49.760;9.664;2023-11-21T19:00:10;11.80;77.70
2539;DHT22;1280;49.760;9.664;2023-11-21T19:02:41;11.80;77.60
2539;DHT22;1280;49.760;9.664;2023-11-21T19:05:10;11.80;77.60
2539;DHT22;1280;49.760;9.664;2023-11-21T19:07:38;11.80;77.70
2539;DHT22;1280;49.760;9.664;2023-11-21T19:10:08;11.80;77.70
2539;DHT22;1280;49.760;9.664;2023-11-21T19:12:38;11.80;77.70
2539;DHT22;1280;49.760;9.664;2023-11-21T19:15:07;11.70;77.70
2539;DHT22;1280;49.760;9.664;2023-11-21T19:17:36;11.80;77.80
2539;DHT22;1280;49.760;9.664;2023-11-21T19:20:08;11.70;77.90
2539;DHT22;1280;49.760;9.664;2023-11-21T19:22:37;11.70;77.90
2539;DHT22;1280;49.760;9.664;2023-11-21T19:25:08;11.70;77.90
2539;DHT22;1280;49.760;9.664;2023-11-21T19:27:38;11.80;78.00
2539;DHT22;1280;49.760;9.664;2023-11-21T19:30:07;11.80;78.00
2539;DHT22;1280;49.760;9.664;2023-11-21T19:32:38;11.80;78.00
2539;DHT22;1280;49.760;9.664;2023-11-21T19:35:06;11.80;78.10
2539;DHT22;1280;49.760;9.664;2023-11-21T19:37:36;11.80;78.00
2539;DHT22;1280;49.760;9.664;2023-11-21T19:40:06;11.80;78.00
2539;DHT22;1280;49.760;9.664;2023-11-21T19:42:35;11.80;78.10
2539;DHT22;1280;49.760;9.664;2023-11-21T19:45:06;11.70;78.10
2539;DHT22;1280;49.760;9.664;2023-11-21T19:47:35;11.70;78.10
2539;DHT22;1280;49.760;9.664;2023-11-21T19:50:07;11.70;78.10
2539;DHT22;1280;49.760;9.664;2023-11-21T19:52:37;11.70;78.20
2539;DHT22;1280;49.760;9.664;2023-11-21T19:55:05;11.60;78.00
2539;DHT22;1280;49.760;9.664;2023-11-21T19:57:36;11.30;77.80
2539;DHT22;1280;49.760;9.664;2023-11-21T20:00:05;11.00;77.60
2539;DHT22;1280;49.760;9.664;2023-11-21T20:02:38;10.80;77.70
2539;DHT22;1280;49.760;9.664;2023-11-21T20:05:07;10.60;78.00
2539;DHT22;1280;49.760;9.664;2023-11-21T20:07:38;10.40;78.10
2539;DHT22;1280;49.760;9.664;2023-11-21T20:10:08;10.30;78.20
2539;DHT22;1280;49.760;9.664;2023-11-21T20:12:38;10.10;78.30
2539;DHT22;1280;49.760;9.664;2023-11-21T20:15:07;10.00;78.20
2539;DHT22;1280;49.760;9.664;2023-11-21T20:17:36;9.90;78.20
2539;DHT22;1280;49.760;9.664;2023-11-21T20:20:06;9.80;78.10
2539;DHT22;1280;49.760;9.664;2023-11-21T20:22:34;9.70;78.10
2539;DHT22;1280;49.760;9.664;2023-11-21T20:25:03;9.70;78.20
2539;DHT22;1280;49.760;9.664;2023-11-21T20:27:35;9.60;78.10
2539;DHT22;1280;49.760;9.664;2023-11-21T20:30:06;9.50;78.10
2539;DHT22;1280;49.760;9.664;2023-11-21T20:32:36;9.40;78.10
2539;DHT22;1280;49.760;9.664;2023-11-21T20:35:06;9.30;78.10
2539;DHT22;1280;49.760;9.664;2023-11-21T20:37:34;9.20;78.10
2539;DHT22;1280;49.760;9.664;2023-11-21T20:40:03;9.20;78.00
2539;DHT22;1280;49.760;9.664;2023-11-21T20:42:34;9.00;77.90
2539;DHT22;1280;49.760;9.664;2023-11-21T20:45:03;9.00;78.00
2539;DHT22;1280;49.760;9.664;2023-11-21T20:47:32;8.80;78.00
2539;DHT22;1280;49.760;9.664;2023-11-21T20:50:01;8.80;78.00
2539;DHT22;1280;49.760;9.664;2023-11-21T20:52:29;8.70;77.90
2539;DHT22;1280;49.760;9.664;2023-11-21T20:55:00;8.60;78.00
2539;DHT22;1280;49.760;9.664;2023-11-21T20:57:29;8.60;78.10
2539;DHT22;1280;49.760;9.664;2023-11-21T20:59:58;8.60;78.20
2539;DHT22;1280;49.760;9.664;2023-11-21T21:02:27;8.50;78.30
2539;DHT22;1280;49.760;9.664;2023-11-21T21:04:56;8.50;78.40
2539;DHT22;1280;49.760;9.664;2023-11-21T21:07:24;8.50;78.50
2539;DHT22;1280;49.760;9.664;2023-11-21T21:09:52;8.50;78.60
2539;DHT22;1280;49.760;9.664;2023-11-21T21:12:20;8.40;78.70
2539;DHT22;1280;49.760;9.664;2023-11-21T21:14:48;8.40;78.70
2539;DHT22;1280;49.760;9.664;2023-11-21T21:17:16;8.40;78.70
2539;DHT22;1280;49.760;9.664;2023-11-21T21:19:44;8.30;78.60
2539;DHT22;1280;49.760;9.664;2023-11-21T21:22:15;8.20;78.60
2539;DHT22;1280;49.760;9.664;2023-11-21T21:24:43;8.20;78.60
2539;DHT22;1280;49.760;9.664;2023-11-21T21:27:11;8.10;78.60
2539;DHT22;1280;49.760;9.664;2023-11-21T21:29:40;8.20;78.70
2539;DHT22;1280;49.760;9.664;2023-11-21T21:32:08;8.20;78.70
2539;DHT22;1280;49.760;9.664;2023-11-21T21:34:36;8.10;78.60
2539;DHT22;1280;49.760;9.664;2023-11-21T21:37:06;8.20;78.60
2539;DHT22;1280;49.760;9.664;2023-11-21T21:39:35;8.20;78.70
2539;DHT22;1280;49.760;9.664;2023-11-21T21:42:03;8.20;78.60
2539;DHT22;1280;49.760;9.664;2023-11-21T21:44:31;8.20;78.60
2539;DHT22;1280;49.760;9.664;2023-11-21T21:47:00;8.20;78.60
2539;DHT22;1280;49.760;9.664;2023-11-21T21:49:28;8.30;78.50
2539;DHT22;1280;49.760;9.664;2023-11-21T21:51:56;8.30;78.40
2539;DHT22;1280;49.760;9.664;2023-11-21T21:54:25;8.30;78.40
2539;DHT22;1280;49.760;9.664;2023-11-21T21:56:54;8.30;78.40
2539;DHT22;1280;49.760;9.664;2023-11-21T21:59:22;8.40;78.50
2539;DHT22;1280;49.760;9.664;2023-11-21T22:01:50;8.40;78.30
2539;DHT22;1280;49.760;9.664;2023-11-21T22:04:21;8.30;77.90
2539;DHT22;1280;49.760;9.664;2023-11-21T22:06:49;8.20;77.70
2539;DHT22;1280;49.760;9.664;2023-11-21T22:09:17;8.10;77.40
2539;DHT22;1280;49.760;9.664;2023-11-21T22:11:45;8.00;77.00
2539;DHT22;1280;49.760;9.664;2023-11-21T22:14:16;7.80;76.80
2539;DHT22;1280;49.760;9.664;2023-11-21T22:16:44;7.70;76.80
2539;DHT22;1280;49.760;9.664;2023-11-21T22:19:12;7.60;76.90
2539;DHT22;1280;49.760;9.664;2023-11-21T22:21:41;7.60;76.90
2539;DHT22;1280;49.760;9.664;2023-11-21T22:24:09;7.60;76.70
2539;DHT22;1280;49.760;9.664;2023-11-21T22:26:37;7.60;76.70
2539;DHT22;1280;49.760;9.664;2023-11-21T22:29:06;7.60;76.50
2539;DHT22;1280;49.760;9.664;2023-11-21T22:31:40;7.60;76.50
2539;DHT22;1280;49.760;9.664;2023-11-21T22:34:08;7.70;76.50
2539;DHT22;1280;49.760;9.664;2023-11-21T22:36:36;7.70;76.50
2539;DHT22;1280;49.760;9.664;2023-11-21T22:39:04;7.70;76.20
2539;DHT22;1280;49.760;9.664;2023-11-21T22:41:33;7.70;76.30
2539;DHT22;1280;49.760;9.664;2023-11-21T22:44:00;7.70;76.10
2539;DHT22;1280;49.760;9.664;2023-11-21T22:46:28;7.70;75.90
2539;DHT22;1280;49.760;9.664;2023-11-21T22:48:58;7.80;75.90
2539;DHT22;1280;49.760;9.664;2023-11-21T22:51:26;7.70;75.60
2539;DHT22;1280;49.760;9.664;2023-11-21T22:53:54;7.70;75.50
2539;DHT22;1280;49.760;9.664;2023-11-21T22:56:22;7.60;75.30
2539;DHT22;1280;49.760;9.664;2023-11-21T22:58:52;7.60;75.20
2539;DHT22;1280;49.760;9.664;2023-11-21T23:01:22;7.50;75.20
2539;DHT22;1280;49.760;9.664;2023-11-21T23:03:51;7.50;75.10
2539;DHT22;1280;49.760;9.664;2023-11-21T23:06:21;7.50;75.10
2539;DHT22;1280;49.760;9.664;2023-11-21T23:08:50;7.50;75.10
2539;DHT22;1280;49.760;9.664;2023-11-21T23:11:18;7.60;75.20
2539;DHT22;1280;49.760;9.664;2023-11-21T23:13:48;7.60;75.00
2539;DHT22;1280;49.760;9.664;2023-11-21T23:16:17;7.60;74.70
2539;DHT22;1280;49.760;9.664;2023-11-21T23:18:45;7.60;74.50
2539;DHT22;1280;49.760;9.664;2023-11-21T23:21:16;7.50;74.60
2539;DHT22;1280;49.760;9.664;2023-11-21T23:23:46;7.60;74.60
2539;DHT22;1280;49.760;9.664;2023-11-21T23:26:14;7.60;74.60
2539;DHT22;1280;49.760;9.664;2023-11-21T23:28:44;7.60;74.40
2539;DHT22;1280;49.760;9.664;2023-11-21T23:31:12;7.60;74.40
2539;DHT22;1280;49.760;9.664;2023-11-21T23:33:40;7.60;74.20
2539;DHT22;1280;49.760;9.664;2023-11-21T23:36:08;7.60;74.20
2539;DHT22;1280;49.760;9.664;2023-11-21T23:38:35;7.60;74.00
2539;DHT22;1280;49.760;9.664;2023-11-21T23:41:09;7.60;73.80
2539;DHT22;1280;49.760;9.664;2023-11-21T23:43:37;7.50;73.70
2539;DHT22;1280;49.760;9.664;2023-11-21T23:46:05;7.40;73.60
2539;DHT22;1280;49.760;9.664;2023-11-21T23:48:33;7.50;73.80
2539;DHT22;1280;49.760;9.664;2023-11-21T23:51:01;7.60;74.00
2539;DHT22;1280;49.760;9.664;2023-11-21T23:53:29;7.60;73.70
2539;DHT22;1280;49.760;9.664;2023-11-21T23:55:57;7.60;73.60
2539;DHT22;1280;49.760;9.664;2023-11-21T23:58:28;7.60;73.50
